sensor_id;sensor_type;location;lat;lon;timestamp;P1;durP1;ratioP1;P2;durP2;ratioP2
3189;SDS011;1606;51.946;10.558;2023-04-07T00:01:10;16.83;;;11.30;;
3189;SDS011;1606;51.946;10.558;2023-04-07T00:03:38;18.53;;;12.17;;
3189;SDS011;1606;51.946;10.558;2023-04-07T00:06:07;21.37;;;12.67;;
3189;SDS011;1606;51.946;10.558;2023-04-07T00:08:36;17.60;;;11.80;;
3189;SDS011;1606;51.946;10.558;2023-04-07T00:11:03;18.90;;;12.13;;
3189;SDS011;1606;51.946;10.558;2023-04-07T00:13:31;19.13;;;12.60;;
3189;SDS011;1606;51.946;10.558;2023-04-07T00:15:59;22.10;;;15.57;;
3189;SDS011;1606;51.946;10.558;2023-04-07T00:18:27;17.10;;;12.43;;
3189;SDS011;1606;51.946;10.558;2023-04-07T00:20:55;18.30;;;12.60;;
3189;SDS011;1606;51.946;10.558;2023-04-07T00:23:22;16.67;;;11.90;;
3189;SDS011;1606;51.946;10.558;2023-04-07T00:25:51;20.53;;;11.30;;
3189;SDS011;1606;51.946;10.558;2023-04-07T00:28:19;18.07;;;12.63;;
3189;SDS011;1606;51.946;10.558;2023-04-07T00:30:47;17.70;;;12.13;;
3189;SDS011;1606;51.946;10.558;2023-04-07T00:33:15;18.83;;;11.97;;
3189;SDS011;1606;51.946;10.558;2023-04-07T00:35:43;18.60;;;12.90;;
3189;SDS011;1606;51.946;10.558;2023-04-07T00:38:11;19.03;;;12.20;;
3189;SDS011;1606;51.946;10.558;2023-04-07T00:40:39;21.00;;;12.50;;
3189;SDS011;1606;51.946;10.558;2023-04-07T00:43:08;20.43;;;13.30;;
3189;SDS011;1606;51.946;10.558;2023-04-07T00:45:35;20.07;;;12.43;;
3189;SDS011;1606;51.946;10.558;2023-04-07T00:48:04;18.87;;;12.33;;
3189;SDS011;1606;51.946;10.558;2023-04-07T00:50:32;17.80;;;12.63;;
3189;SDS011;1606;51.946;10.558;2023-04-07T00:53:00;20.00;;;11.97;;
3189;SDS011;1606;51.946;10.558;2023-04-07T00:55:28;20.37;;;13.40;;
3189;SDS011;1606;51.946;10.558;2023-04-07T00:57:56;21.20;;;12.90;;
3189;SDS011;1606;51.946;10.558;2023-04-07T01:00:25;17.50;;;12.10;;
3189;SDS011;1606;51.946;10.558;2023-04-07T01:02:55;17.80;;;12.20;;
3189;SDS011;1606;51.946;10.558;2023-04-07T01:05:28;21.77;;;13.10;;
3189;SDS011;1606;51.946;10.558;2023-04-07T01:08:06;21.27;;;12.40;;
3189;SDS011;1606;51.946;10.558;2023-04-07T01:10:41;17.30;;;12.30;;
3189;SDS011;1606;51.946;10.558;2023-04-07T01:13:18;17.30;;;12.73;;
3189;SDS011;1606;51.946;10.558;2023-04-07T01:15:51;18.90;;;11.47;;
3189;SDS011;1606;51.946;10.558;2023-04-07T01:18:23;16.60;;;11.50;;
3189;SDS011;1606;51.946;10.558;2023-04-07T01:20:55;17.17;;;11.43;;
3189;SDS011;1606;51.946;10.558;2023-04-07T01:23:30;21.20;;;13.20;;
3189;SDS011;1606;51.946;10.558;2023-04-07T01:26:19;22.20;;;13.10;;
3189;SDS011;1606;51.946;10.558;2023-04-07T01:29:03;18.83;;;11.83;;
3189;SDS011;1606;51.946;10.558;2023-04-07T01:31:40;17.80;;;11.77;;
3189;SDS011;1606;51.946;10.558;2023-04-07T01:34:08;18.57;;;11.97;;
3189;SDS011;1606;51.946;10.558;2023-04-07T01:36:37;17.03;;;11.23;;
3189;SDS011;1606;51.946;10.558;2023-04-07T01:39:06;21.67;;;13.60;;
3189;SDS011;1606;51.946;10.558;2023-04-07T01:41:35;18.30;;;12.40;;
3189;SDS011;1606;51.946;10.558;2023-04-07T01:44:05;19.37;;;12.80;;
3189;SDS011;1606;51.946;10.558;2023-04-07T01:46:34;19.50;;;12.10;;
3189;SDS011;1606;51.946;10.558;2023-04-07T01:49:03;20.30;;;13.00;;
3189;SDS011;1606;51.946;10.558;2023-04-07T01:51:31;19.27;;;11.97;;
3189;SDS011;1606;51.946;10.558;2023-04-07T01:54:00;18.23;;;11.90;;
3189;SDS011;1606;51.946;10.558;2023-04-07T01:56:28;18.27;;;11.40;;
3189;SDS011;1606;51.946;10.558;2023-04-07T01:58:56;21.07;;;12.33;;
3189;SDS011;1606;51.946;10.558;2023-04-07T02:01:24;18.67;;;12.33;;
3189;SDS011;1606;51.946;10.558;2023-04-07T02:03:53;18.17;;;11.77;;
3189;SDS011;1606;51.946;10.558;2023-04-07T02:06:29;16.43;;;10.93;;
3189;SDS011;1606;51.946;10.558;2023-04-07T02:09:01;25.73;;;13.50;;
3189;SDS011;1606;51.946;10.558;2023-04-07T02:11:33;17.40;;;12.27;;
3189;SDS011;1606;51.946;10.558;2023-04-07T02:14:02;17.63;;;11.13;;
3189;SDS011;1606;51.946;10.558;2023-04-07T02:16:32;18.83;;;11.77;;
3189;SDS011;1606;51.946;10.558;2023-04-07T02:19:01;18.90;;;11.83;;
3189;SDS011;1606;51.946;10.558;2023-04-07T02:21:32;17.53;;;11.50;;
3189;SDS011;1606;51.946;10.558;2023-04-07T02:24:03;20.93;;;12.90;;
3189;SDS011;1606;51.946;10.558;2023-04-07T02:26:33;19.03;;;12.40;;
3189;SDS011;1606;51.946;10.558;2023-04-07T02:29:01;17.17;;;11.00;;
3189;SDS011;1606;51.946;10.558;2023-04-07T02:31:29;18.00;;;12.50;;
3189;SDS011;1606;51.946;10.558;2023-04-07T02:33:57;21.70;;;11.97;;
3189;SDS011;1606;51.946;10.558;2023-04-07T02:36:25;19.23;;;11.87;;
3189;SDS011;1606;51.946;10.558;2023-04-07T02:38:54;17.10;;;11.43;;
3189;SDS011;1606;51.946;10.558;2023-04-07T02:41:22;18.13;;;12.53;;
3189;SDS011;1606;51.946;10.558;2023-04-07T02:43:49;18.17;;;12.30;;
3189;SDS011;1606;51.946;10.558;2023-04-07T02:46:17;17.07;;;11.27;;
3189;SDS011;1606;51.946;10.558;2023-04-07T02:48:45;18.47;;;12.33;;
3189;SDS011;1606;51.946;10.558;2023-04-07T02:51:13;20.33;;;12.10;;
3189;SDS011;1606;51.946;10.558;2023-04-07T02:53:41;22.27;;;12.87;;
3189;SDS011;1606;51.946;10.558;2023-04-07T02:56:10;16.97;;;11.40;;
3189;SDS011;1606;51.946;10.558;2023-04-07T02:58:37;20.10;;;11.67;;
3189;SDS011;1606;51.946;10.558;2023-04-07T03:01:05;23.67;;;12.50;;
3189;SDS011;1606;51.946;10.558;2023-04-07T03:03:33;20.37;;;12.50;;
3189;SDS011;1606;51.946;10.558;2023-04-07T03:06:01;19.67;;;12.30;;
3189;SDS011;1606;51.946;10.558;2023-04-07T03:08:29;18.37;;;11.30;;
3189;SDS011;1606;51.946;10.558;2023-04-07T03:10:56;20.33;;;11.73;;
3189;SDS011;1606;51.946;10.558;2023-04-07T03:13:25;16.53;;;10.70;;
3189;SDS011;1606;51.946;10.558;2023-04-07T03:15:55;19.90;;;12.47;;
3189;SDS011;1606;51.946;10.558;2023-04-07T03:18:23;17.23;;;11.47;;
3189;SDS011;1606;51.946;10.558;2023-04-07T03:20:50;19.30;;;12.73;;
3189;SDS011;1606;51.946;10.558;2023-04-07T03:23:20;17.37;;;11.37;;
3189;SDS011;1606;51.946;10.558;2023-04-07T03:25:49;20.87;;;13.40;;
3189;SDS011;1606;51.946;10.558;2023-04-07T03:28:16;19.90;;;12.50;;
3189;SDS011;1606;51.946;10.558;2023-04-07T03:30:45;19.80;;;13.77;;
3189;SDS011;1606;51.946;10.558;2023-04-07T03:33:14;18.97;;;12.30;;
3189;SDS011;1606;51.946;10.558;2023-04-07T03:35:42;20.13;;;11.93;;
3189;SDS011;1606;51.946;10.558;2023-04-07T03:38:10;19.47;;;12.60;;
3189;SDS011;1606;51.946;10.558;2023-04-07T03:40:37;18.90;;;12.80;;
3189;SDS011;1606;51.946;10.558;2023-04-07T03:43:06;19.13;;;12.90;;
3189;SDS011;1606;51.946;10.558;2023-04-07T03:45:37;20.07;;;11.37;;
3189;SDS011;1606;51.946;10.558;2023-04-07T03:48:07;22.00;;;13.27;;
3189;SDS011;1606;51.946;10.558;2023-04-07T03:50:37;17.80;;;11.70;;
3189;SDS011;1606;51.946;10.558;2023-04-07T03:53:05;17.70;;;12.23;;
3189;SDS011;1606;51.946;10.558;2023-04-07T03:55:33;18.87;;;12.83;;
3189;SDS011;1606;51.946;10.558;2023-04-07T03:58:01;21.30;;;12.40;;
3189;SDS011;1606;51.946;10.558;2023-04-07T04:00:29;21.03;;;13.20;;
3189;SDS011;1606;51.946;10.558;2023-04-07T04:02:58;20.63;;;12.40;;
3189;SDS011;1606;51.946;10.558;2023-04-07T04:05:27;21.13;;;13.13;;
3189;SDS011;1606;51.946;10.558;2023-04-07T04:07:55;19.20;;;12.70;;
3189;SDS011;1606;51.946;10.558;2023-04-07T04:10:23;20.53;;;12.70;;
3189;SDS011;1606;51.946;10.558;2023-04-07T04:12:50;22.00;;;14.27;;
3189;SDS011;1606;51.946;10.558;2023-04-07T04:15:18;18.10;;;12.67;;
3189;SDS011;1606;51.946;10.558;2023-04-07T04:17:46;19.53;;;12.10;;
3189;SDS011;1606;51.946;10.558;2023-04-07T04:20:14;20.90;;;12.40;;
3189;SDS011;1606;51.946;10.558;2023-04-07T04:22:43;21.10;;;13.13;;
3189;SDS011;1606;51.946;10.558;2023-04-07T04:25:11;22.50;;;13.17;;
3189;SDS011;1606;51.946;10.558;2023-04-07T04:27:39;22.20;;;13.87;;
3189;SDS011;1606;51.946;10.558;2023-04-07T04:30:07;18.53;;;12.10;;
3189;SDS011;1606;51.946;10.558;2023-04-07T04:32:35;18.13;;;11.70;;
3189;SDS011;1606;51.946;10.558;2023-04-07T04:35:03;16.43;;;11.23;;
3189;SDS011;1606;51.946;10.558;2023-04-07T04:37:31;24.03;;;13.83;;
3189;SDS011;1606;51.946;10.558;2023-04-07T04:40:01;18.20;;;11.60;;
3189;SDS011;1606;51.946;10.558;2023-04-07T04:42:29;18.97;;;12.50;;
3189;SDS011;1606;51.946;10.558;2023-04-07T04:44:58;21.83;;;12.93;;
3189;SDS011;1606;51.946;10.558;2023-04-07T04:47:26;18.10;;;11.53;;
3189;SDS011;1606;51.946;10.558;2023-04-07T04:49:54;20.50;;;12.67;;
3189;SDS011;1606;51.946;10.558;2023-04-07T04:52:22;17.67;;;11.50;;
3189;SDS011;1606;51.946;10.558;2023-04-07T04:54:49;19.93;;;12.73;;
3189;SDS011;1606;51.946;10.558;2023-04-07T04:57:18;17.97;;;12.30;;
3189;SDS011;1606;51.946;10.558;2023-04-07T04:59:46;20.87;;;13.63;;
3189;SDS011;1606;51.946;10.558;2023-04-07T05:02:14;21.00;;;12.50;;
3189;SDS011;1606;51.946;10.558;2023-04-07T05:04:42;20.83;;;12.00;;
3189;SDS011;1606;51.946;10.558;2023-04-07T05:07:10;23.50;;;13.73;;
3189;SDS011;1606;51.946;10.558;2023-04-07T05:09:38;19.80;;;13.87;;
3189;SDS011;1606;51.946;10.558;2023-04-07T05:12:05;18.50;;;12.30;;
3189;SDS011;1606;51.946;10.558;2023-04-07T05:14:35;19.43;;;13.00;;
3189;SDS011;1606;51.946;10.558;2023-04-07T05:17:02;21.83;;;14.70;;
3189;SDS011;1606;51.946;10.558;2023-04-07T05:19:30;20.20;;;12.80;;
3189;SDS011;1606;51.946;10.558;2023-04-07T05:21:58;19.83;;;12.40;;
3189;SDS011;1606;51.946;10.558;2023-04-07T05:24:27;23.17;;;13.40;;
3189;SDS011;1606;51.946;10.558;2023-04-07T05:26:55;23.53;;;14.13;;
3189;SDS011;1606;51.946;10.558;2023-04-07T05:29:23;18.77;;;12.00;;
3189;SDS011;1606;51.946;10.558;2023-04-07T05:31:52;23.63;;;13.40;;
3189;SDS011;1606;51.946;10.558;2023-04-07T05:34:20;20.30;;;12.80;;
3189;SDS011;1606;51.946;10.558;2023-04-07T05:36:47;21.03;;;13.47;;
3189;SDS011;1606;51.946;10.558;2023-04-07T05:39:16;20.47;;;12.90;;
3189;SDS011;1606;51.946;10.558;2023-04-07T05:41:43;22.10;;;13.70;;
3189;SDS011;1606;51.946;10.558;2023-04-07T05:44:11;22.37;;;13.70;;
3189;SDS011;1606;51.946;10.558;2023-04-07T05:46:39;20.73;;;13.60;;
3189;SDS011;1606;51.946;10.558;2023-04-07T05:49:08;21.13;;;13.23;;
3189;SDS011;1606;51.946;10.558;2023-04-07T05:51:45;20.90;;;12.77;;
3189;SDS011;1606;51.946;10.558;2023-04-07T05:54:14;20.50;;;13.53;;
3189;SDS011;1606;51.946;10.558;2023-04-07T05:56:42;20.57;;;13.37;;
3189;SDS011;1606;51.946;10.558;2023-04-07T05:59:10;24.00;;;13.97;;
3189;SDS011;1606;51.946;10.558;2023-04-07T06:01:38;22.97;;;15.70;;
3189;SDS011;1606;51.946;10.558;2023-04-07T06:04:06;23.40;;;16.43;;
3189;SDS011;1606;51.946;10.558;2023-04-07T06:06:35;27.80;;;17.70;;
3189;SDS011;1606;51.946;10.558;2023-04-07T06:09:04;23.30;;;16.50;;
3189;SDS011;1606;51.946;10.558;2023-04-07T06:11:33;30.30;;;18.33;;
3189;SDS011;1606;51.946;10.558;2023-04-07T06:14:01;22.97;;;16.17;;
3189;SDS011;1606;51.946;10.558;2023-04-07T06:16:28;24.80;;;17.03;;
3189;SDS011;1606;51.946;10.558;2023-04-07T06:18:56;27.40;;;19.20;;
3189;SDS011;1606;51.946;10.558;2023-04-07T06:21:24;26.03;;;16.70;;
3189;SDS011;1606;51.946;10.558;2023-04-07T06:23:53;28.67;;;17.80;;
3189;SDS011;1606;51.946;10.558;2023-04-07T06:26:21;28.70;;;18.27;;
3189;SDS011;1606;51.946;10.558;2023-04-07T06:28:49;21.30;;;14.93;;
3189;SDS011;1606;51.946;10.558;2023-04-07T06:31:18;22.53;;;16.90;;
3189;SDS011;1606;51.946;10.558;2023-04-07T06:33:46;25.37;;;16.77;;
3189;SDS011;1606;51.946;10.558;2023-04-07T06:36:14;24.73;;;16.80;;
3189;SDS011;1606;51.946;10.558;2023-04-07T06:38:41;21.37;;;15.33;;
3189;SDS011;1606;51.946;10.558;2023-04-07T06:41:11;25.50;;;17.30;;
3189;SDS011;1606;51.946;10.558;2023-04-07T06:43:42;25.20;;;16.07;;
3189;SDS011;1606;51.946;10.558;2023-04-07T06:46:10;24.37;;;16.27;;
3189;SDS011;1606;51.946;10.558;2023-04-07T06:48:38;22.00;;;15.60;;
3189;SDS011;1606;51.946;10.558;2023-04-07T06:51:05;26.97;;;15.50;;
3189;SDS011;1606;51.946;10.558;2023-04-07T06:53:33;20.67;;;14.10;;
3189;SDS011;1606;51.946;10.558;2023-04-07T06:56:02;19.93;;;14.83;;
3189;SDS011;1606;51.946;10.558;2023-04-07T07:01:01;24.30;;;14.87;;
3189;SDS011;1606;51.946;10.558;2023-04-07T07:03:29;19.70;;;15.07;;
3189;SDS011;1606;51.946;10.558;2023-04-07T07:05:57;20.47;;;14.43;;
3189;SDS011;1606;51.946;10.558;2023-04-07T07:08:25;22.70;;;14.57;;
3189;SDS011;1606;51.946;10.558;2023-04-07T07:10:54;22.73;;;15.30;;
3189;SDS011;1606;51.946;10.558;2023-04-07T07:13:22;19.93;;;14.10;;
3189;SDS011;1606;51.946;10.558;2023-04-07T07:15:52;18.77;;;12.57;;
3189;SDS011;1606;51.946;10.558;2023-04-07T07:18:21;16.07;;;12.70;;
3189;SDS011;1606;51.946;10.558;2023-04-07T07:20:48;17.50;;;11.77;;
3189;SDS011;1606;51.946;10.558;2023-04-07T07:23:16;18.27;;;13.40;;
3189;SDS011;1606;51.946;10.558;2023-04-07T07:25:44;18.63;;;12.57;;
3189;SDS011;1606;51.946;10.558;2023-04-07T07:28:12;19.23;;;13.23;;
3189;SDS011;1606;51.946;10.558;2023-04-07T07:30:40;20.33;;;14.10;;
3189;SDS011;1606;51.946;10.558;2023-04-07T07:33:09;20.33;;;14.33;;
3189;SDS011;1606;51.946;10.558;2023-04-07T07:35:37;24.10;;;16.17;;
3189;SDS011;1606;51.946;10.558;2023-04-07T07:38:05;21.83;;;17.33;;
3189;SDS011;1606;51.946;10.558;2023-04-07T07:40:33;25.27;;;16.70;;
3189;SDS011;1606;51.946;10.558;2023-04-07T07:43:01;22.20;;;16.63;;
3189;SDS011;1606;51.946;10.558;2023-04-07T07:45:29;27.43;;;16.20;;
3189;SDS011;1606;51.946;10.558;2023-04-07T07:47:56;19.87;;;14.33;;
3189;SDS011;1606;51.946;10.558;2023-04-07T07:50:25;17.77;;;14.60;;
3189;SDS011;1606;51.946;10.558;2023-04-07T07:52:53;22.17;;;14.73;;
3189;SDS011;1606;51.946;10.558;2023-04-07T07:55:21;19.90;;;13.40;;
3189;SDS011;1606;51.946;10.558;2023-04-07T07:57:49;18.33;;;12.90;;
3189;SDS011;1606;51.946;10.558;2023-04-07T08:00:17;22.30;;;13.90;;
3189;SDS011;1606;51.946;10.558;2023-04-07T08:02:44;22.23;;;13.73;;
3189;SDS011;1606;51.946;10.558;2023-04-07T08:05:12;21.10;;;13.33;;
3189;SDS011;1606;51.946;10.558;2023-04-07T08:07:41;17.77;;;12.17;;
3189;SDS011;1606;51.946;10.558;2023-04-07T08:10:09;17.50;;;12.00;;
3189;SDS011;1606;51.946;10.558;2023-04-07T08:12:37;20.77;;;12.40;;
3189;SDS011;1606;51.946;10.558;2023-04-07T08:15:05;18.20;;;12.10;;
3189;SDS011;1606;51.946;10.558;2023-04-07T08:17:34;21.57;;;11.90;;
3189;SDS011;1606;51.946;10.558;2023-04-07T08:20:03;18.53;;;13.83;;
3189;SDS011;1606;51.946;10.558;2023-04-07T08:22:31;18.40;;;12.93;;
3189;SDS011;1606;51.946;10.558;2023-04-07T08:25:01;17.20;;;12.90;;
3189;SDS011;1606;51.946;10.558;2023-04-07T08:27:28;19.23;;;12.03;;
3189;SDS011;1606;51.946;10.558;2023-04-07T08:29:59;18.70;;;12.23;;
3189;SDS011;1606;51.946;10.558;2023-04-07T08:32:33;18.87;;;12.20;;
3189;SDS011;1606;51.946;10.558;2023-04-07T08:35:01;19.30;;;12.80;;
3189;SDS011;1606;51.946;10.558;2023-04-07T08:37:30;15.57;;;10.90;;
3189;SDS011;1606;51.946;10.558;2023-04-07T08:39:58;14.93;;;9.63;;
3189;SDS011;1606;51.946;10.558;2023-04-07T08:42:28;14.03;;;9.17;;
3189;SDS011;1606;51.946;10.558;2023-04-07T08:44:57;16.23;;;9.50;;
3189;SDS011;1606;51.946;10.558;2023-04-07T08:47:29;14.73;;;9.60;;
3189;SDS011;1606;51.946;10.558;2023-04-07T08:49:59;15.10;;;9.63;;
3189;SDS011;1606;51.946;10.558;2023-04-07T08:52:31;14.83;;;9.70;;
3189;SDS011;1606;51.946;10.558;2023-04-07T08:55:00;13.30;;;8.87;;
3189;SDS011;1606;51.946;10.558;2023-04-07T08:57:33;14.57;;;8.60;;
3189;SDS011;1606;51.946;10.558;2023-04-07T09:00:01;12.90;;;8.50;;
3189;SDS011;1606;51.946;10.558;2023-04-07T09:02:31;18.97;;;9.13;;
3189;SDS011;1606;51.946;10.558;2023-04-07T09:05:00;16.60;;;8.97;;
3189;SDS011;1606;51.946;10.558;2023-04-07T09:07:31;13.27;;;7.47;;
3189;SDS011;1606;51.946;10.558;2023-04-07T09:09:59;12.33;;;8.70;;
3189;SDS011;1606;51.946;10.558;2023-04-07T09:12:28;13.50;;;8.17;;
3189;SDS011;1606;51.946;10.558;2023-04-07T09:14:57;14.30;;;9.77;;
3189;SDS011;1606;51.946;10.558;2023-04-07T09:17:26;14.03;;;9.43;;
3189;SDS011;1606;51.946;10.558;2023-04-07T09:19:55;14.10;;;8.33;;
3189;SDS011;1606;51.946;10.558;2023-04-07T09:22:33;14.90;;;9.13;;
3189;SDS011;1606;51.946;10.558;2023-04-07T09:25:08;15.00;;;9.33;;
3189;SDS011;1606;51.946;10.558;2023-04-07T09:27:37;22.80;;;9.50;;
3189;SDS011;1606;51.946;10.558;2023-04-07T09:30:13;12.53;;;7.90;;
3189;SDS011;1606;51.946;10.558;2023-04-07T09:32:41;13.43;;;8.20;;
3189;SDS011;1606;51.946;10.558;2023-04-07T09:35:09;15.33;;;8.60;;
3189;SDS011;1606;51.946;10.558;2023-04-07T09:37:37;12.67;;;7.57;;
3189;SDS011;1606;51.946;10.558;2023-04-07T09:40:05;11.27;;;7.47;;
3189;SDS011;1606;51.946;10.558;2023-04-07T09:42:34;11.57;;;8.00;;
3189;SDS011;1606;51.946;10.558;2023-04-07T09:45:10;13.13;;;7.60;;
3189;SDS011;1606;51.946;10.558;2023-04-07T09:47:53;12.97;;;8.33;;
3189;SDS011;1606;51.946;10.558;2023-04-07T09:50:31;14.57;;;8.83;;
3189;SDS011;1606;51.946;10.558;2023-04-07T09:53:00;13.17;;;7.70;;
3189;SDS011;1606;51.946;10.558;2023-04-07T09:55:30;13.63;;;7.47;;
3189;SDS011;1606;51.946;10.558;2023-04-07T09:57:59;13.40;;;7.93;;
3189;SDS011;1606;51.946;10.558;2023-04-07T10:00:27;15.67;;;9.30;;
3189;SDS011;1606;51.946;10.558;2023-04-07T10:02:56;12.00;;;8.00;;
3189;SDS011;1606;51.946;10.558;2023-04-07T10:05:25;14.77;;;8.10;;
3189;SDS011;1606;51.946;10.558;2023-04-07T10:07:53;15.80;;;8.87;;
3189;SDS011;1606;51.946;10.558;2023-04-07T10:10:22;13.30;;;8.43;;
3189;SDS011;1606;51.946;10.558;2023-04-07T10:12:51;14.87;;;8.60;;
3189;SDS011;1606;51.946;10.558;2023-04-07T10:15:20;17.07;;;9.40;;
3189;SDS011;1606;51.946;10.558;2023-04-07T10:17:49;16.60;;;8.80;;
3189;SDS011;1606;51.946;10.558;2023-04-07T10:20:19;12.77;;;7.80;;
3189;SDS011;1606;51.946;10.558;2023-04-07T10:22:47;12.23;;;7.97;;
3189;SDS011;1606;51.946;10.558;2023-04-07T10:25:17;16.47;;;8.83;;
3189;SDS011;1606;51.946;10.558;2023-04-07T10:27:47;12.87;;;7.80;;
3189;SDS011;1606;51.946;10.558;2023-04-07T10:30:19;13.00;;;8.57;;
3189;SDS011;1606;51.946;10.558;2023-04-07T10:32:49;12.40;;;8.33;;
3189;SDS011;1606;51.946;10.558;2023-04-07T10:35:21;12.47;;;8.77;;
3189;SDS011;1606;51.946;10.558;2023-04-07T10:40:40;14.03;;;8.60;;
3189;SDS011;1606;51.946;10.558;2023-04-07T10:43:08;14.37;;;8.23;;
3189;SDS011;1606;51.946;10.558;2023-04-07T10:45:53;14.20;;;7.97;;
3189;SDS011;1606;51.946;10.558;2023-04-07T10:48:24;14.80;;;8.87;;
3189;SDS011;1606;51.946;10.558;2023-04-07T10:51:12;13.83;;;8.20;;
3189;SDS011;1606;51.946;10.558;2023-04-07T10:57:07;13.80;;;9.30;;
3189;SDS011;1606;51.946;10.558;2023-04-07T10:59:37;14.33;;;7.87;;
3189;SDS011;1606;51.946;10.558;2023-04-07T11:05:00;12.67;;;8.70;;
3189;SDS011;1606;51.946;10.558;2023-04-07T11:07:49;18.53;;;8.90;;
3189;SDS011;1606;51.946;10.558;2023-04-07T11:10:20;16.03;;;9.13;;
3189;SDS011;1606;51.946;10.558;2023-04-07T11:12:58;15.80;;;9.70;;
3189;SDS011;1606;51.946;10.558;2023-04-07T11:15:36;14.60;;;8.90;;
3189;SDS011;1606;51.946;10.558;2023-04-07T11:18:13;12.70;;;8.30;;
3189;SDS011;1606;51.946;10.558;2023-04-07T11:20:50;13.23;;;7.93;;
3189;SDS011;1606;51.946;10.558;2023-04-07T11:23:21;12.73;;;8.33;;
3189;SDS011;1606;51.946;10.558;2023-04-07T11:25:51;13.47;;;9.10;;
3189;SDS011;1606;51.946;10.558;2023-04-07T11:28:25;15.07;;;9.00;;
3189;SDS011;1606;51.946;10.558;2023-04-07T11:30:53;13.70;;;9.30;;
3189;SDS011;1606;51.946;10.558;2023-04-07T11:33:24;14.43;;;9.20;;
3189;SDS011;1606;51.946;10.558;2023-04-07T11:35:53;16.57;;;10.20;;
3189;SDS011;1606;51.946;10.558;2023-04-07T11:38:24;15.67;;;9.00;;
3189;SDS011;1606;51.946;10.558;2023-04-07T11:40:54;13.67;;;9.07;;
3189;SDS011;1606;51.946;10.558;2023-04-07T11:43:23;13.30;;;9.80;;
3189;SDS011;1606;51.946;10.558;2023-04-07T11:46:02;12.90;;;8.83;;
3189;SDS011;1606;51.946;10.558;2023-04-07T11:48:34;13.13;;;8.57;;
3189;SDS011;1606;51.946;10.558;2023-04-07T11:51:03;16.43;;;9.20;;
3189;SDS011;1606;51.946;10.558;2023-04-07T11:53:34;13.23;;;8.00;;
3189;SDS011;1606;51.946;10.558;2023-04-07T11:56:04;13.63;;;8.40;;
3189;SDS011;1606;51.946;10.558;2023-04-07T11:58:34;16.13;;;8.50;;
3189;SDS011;1606;51.946;10.558;2023-04-07T12:01:04;14.30;;;9.00;;
3189;SDS011;1606;51.946;10.558;2023-04-07T12:03:34;13.03;;;8.30;;
3189;SDS011;1606;51.946;10.558;2023-04-07T12:06:03;13.77;;;9.23;;
3189;SDS011;1606;51.946;10.558;2023-04-07T12:08:42;14.03;;;8.43;;
3189;SDS011;1606;51.946;10.558;2023-04-07T12:11:10;16.17;;;8.30;;
3189;SDS011;1606;51.946;10.558;2023-04-07T12:13:38;12.10;;;7.70;;
3189;SDS011;1606;51.946;10.558;2023-04-07T12:16:06;13.83;;;9.00;;
3189;SDS011;1606;51.946;10.558;2023-04-07T12:18:34;14.00;;;9.37;;
3189;SDS011;1606;51.946;10.558;2023-04-07T12:21:02;17.13;;;9.37;;
3189;SDS011;1606;51.946;10.558;2023-04-07T12:23:30;14.30;;;8.63;;
3189;SDS011;1606;51.946;10.558;2023-04-07T12:25:59;15.27;;;10.23;;
3189;SDS011;1606;51.946;10.558;2023-04-07T12:28:27;15.33;;;9.00;;
3189;SDS011;1606;51.946;10.558;2023-04-07T12:30:55;13.53;;;9.03;;
3189;SDS011;1606;51.946;10.558;2023-04-07T12:33:22;14.20;;;8.60;;
3189;SDS011;1606;51.946;10.558;2023-04-07T12:35:50;13.53;;;8.27;;
3189;SDS011;1606;51.946;10.558;2023-04-07T12:38:18;13.63;;;8.97;;
3189;SDS011;1606;51.946;10.558;2023-04-07T12:40:46;14.00;;;10.10;;
3189;SDS011;1606;51.946;10.558;2023-04-07T12:43:15;12.80;;;9.40;;
3189;SDS011;1606;51.946;10.558;2023-04-07T12:45:43;13.57;;;9.30;;
3189;SDS011;1606;51.946;10.558;2023-04-07T12:48:10;14.23;;;10.00;;
3189;SDS011;1606;51.946;10.558;2023-04-07T12:50:38;16.40;;;10.00;;
3189;SDS011;1606;51.946;10.558;2023-04-07T12:53:06;13.43;;;9.20;;
3189;SDS011;1606;51.946;10.558;2023-04-07T12:55:34;14.50;;;10.60;;
3189;SDS011;1606;51.946;10.558;2023-04-07T12:58:02;13.50;;;9.60;;
3189;SDS011;1606;51.946;10.558;2023-04-07T13:00:31;15.17;;;9.77;;
3189;SDS011;1606;51.946;10.558;2023-04-07T13:02:59;13.80;;;9.00;;
3189;SDS011;1606;51.946;10.558;2023-04-07T13:05:28;11.93;;;9.17;;
3189;SDS011;1606;51.946;10.558;2023-04-07T13:07:56;13.60;;;9.07;;
3189;SDS011;1606;51.946;10.558;2023-04-07T13:10:24;13.93;;;8.27;;
3189;SDS011;1606;51.946;10.558;2023-04-07T13:12:52;13.80;;;8.60;;
3189;SDS011;1606;51.946;10.558;2023-04-07T13:15:21;15.00;;;10.00;;
3189;SDS011;1606;51.946;10.558;2023-04-07T13:17:51;12.97;;;8.90;;
3189;SDS011;1606;51.946;10.558;2023-04-07T13:20:18;14.80;;;9.37;;
3189;SDS011;1606;51.946;10.558;2023-04-07T13:22:47;13.90;;;8.63;;
3189;SDS011;1606;51.946;10.558;2023-04-07T13:25:31;18.33;;;9.30;;
3189;SDS011;1606;51.946;10.558;2023-04-07T13:27:58;13.97;;;7.70;;
3189;SDS011;1606;51.946;10.558;2023-04-07T13:30:26;13.57;;;8.77;;
3189;SDS011;1606;51.946;10.558;2023-04-07T13:32:55;13.97;;;10.20;;
3189;SDS011;1606;51.946;10.558;2023-04-07T13:35:23;13.70;;;8.60;;
3189;SDS011;1606;51.946;10.558;2023-04-07T13:37:51;13.13;;;7.83;;
3189;SDS011;1606;51.946;10.558;2023-04-07T13:40:19;14.50;;;8.57;;
3189;SDS011;1606;51.946;10.558;2023-04-07T13:42:47;13.03;;;8.37;;
3189;SDS011;1606;51.946;10.558;2023-04-07T13:45:14;12.10;;;7.90;;
3189;SDS011;1606;51.946;10.558;2023-04-07T13:47:42;16.03;;;7.80;;
3189;SDS011;1606;51.946;10.558;2023-04-07T13:50:12;11.43;;;8.00;;
3189;SDS011;1606;51.946;10.558;2023-04-07T13:52:41;11.80;;;7.83;;
3189;SDS011;1606;51.946;10.558;2023-04-07T13:55:08;10.80;;;7.43;;
3189;SDS011;1606;51.946;10.558;2023-04-07T13:57:36;11.17;;;7.00;;
3189;SDS011;1606;51.946;10.558;2023-04-07T14:00:04;12.37;;;8.80;;
3189;SDS011;1606;51.946;10.558;2023-04-07T14:02:33;12.20;;;8.90;;
3189;SDS011;1606;51.946;10.558;2023-04-07T14:05:01;11.17;;;7.83;;
3189;SDS011;1606;51.946;10.558;2023-04-07T14:07:30;11.23;;;7.20;;
3189;SDS011;1606;51.946;10.558;2023-04-07T14:09:58;11.50;;;7.47;;
3189;SDS011;1606;51.946;10.558;2023-04-07T14:12:26;11.20;;;7.57;;
3189;SDS011;1606;51.946;10.558;2023-04-07T14:14:54;13.43;;;8.27;;
3189;SDS011;1606;51.946;10.558;2023-04-07T14:17:22;11.40;;;7.73;;
3189;SDS011;1606;51.946;10.558;2023-04-07T14:19:49;12.20;;;6.90;;
3189;SDS011;1606;51.946;10.558;2023-04-07T14:22:17;12.30;;;7.50;;
3189;SDS011;1606;51.946;10.558;2023-04-07T14:24:47;12.53;;;8.00;;
3189;SDS011;1606;51.946;10.558;2023-04-07T14:27:15;10.93;;;6.33;;
3189;SDS011;1606;51.946;10.558;2023-04-07T14:29:46;11.40;;;7.20;;
3189;SDS011;1606;51.946;10.558;2023-04-07T14:32:14;11.50;;;7.87;;
3189;SDS011;1606;51.946;10.558;2023-04-07T14:34:42;11.67;;;7.70;;
3189;SDS011;1606;51.946;10.558;2023-04-07T14:37:10;12.90;;;8.27;;
3189;SDS011;1606;51.946;10.558;2023-04-07T14:39:39;13.33;;;7.57;;
3189;SDS011;1606;51.946;10.558;2023-04-07T14:42:22;11.20;;;7.60;;
3189;SDS011;1606;51.946;10.558;2023-04-07T14:44:49;14.43;;;7.20;;
3189;SDS011;1606;51.946;10.558;2023-04-07T14:47:18;10.03;;;6.30;;
3189;SDS011;1606;51.946;10.558;2023-04-07T14:49:46;12.17;;;7.40;;
3189;SDS011;1606;51.946;10.558;2023-04-07T14:52:16;12.60;;;7.20;;
3189;SDS011;1606;51.946;10.558;2023-04-07T14:54:44;11.57;;;6.40;;
3189;SDS011;1606;51.946;10.558;2023-04-07T14:57:12;11.53;;;7.73;;
3189;SDS011;1606;51.946;10.558;2023-04-07T14:59:41;13.30;;;6.97;;
3189;SDS011;1606;51.946;10.558;2023-04-07T15:02:09;11.90;;;7.17;;
3189;SDS011;1606;51.946;10.558;2023-04-07T15:04:37;11.57;;;7.13;;